Time;durP1;ratioP1;P1;durP2;ratioP2;P2;SDS_P1;SDS_P2;PMS_P1;PMS_P2;Temp;Humidity;BMP_temperature;BMP_pressure;BME280_temperature;BME280_humidity;BME280_pressure;Samples;Min_cycle;Max_cycle;Signal;HPM_P1;HPM_P2
2022/09/08 00:00:41;;;;;;;3.78;2.17;;;;;;;19.88;100.00;99463.53;5050074;28;20033;-68
2022/09/08 00:03:10;;;;;;;5.43;2.55;;;;;;;19.84;100.00;99466.59;5049815;28;20048;-69
2022/09/08 00:05:59;;;;;;;4.88;2.35;;;;;;;19.82;100.00;99453.22;5049931;28;20484;-69
2022/09/08 00:08:24;;;;;;;3.75;2.20;;;;;;;19.82;100.00;99446.97;5049687;28;20040;-69
2022/09/08 00:10:54;;;;;;;4.90;2.10;;;;;;;19.85;100.00;99465.63;5050036;28;20430;-69
2022/09/08 00:13:20;;;;;;;4.80;2.20;;;;;;;19.83;100.00;99472.97;5049955;28;20393;-69
2022/09/08 00:15:46;;;;;;;4.68;2.30;;;;;;;19.73;100.00;99462.06;5049888;28;20037;-69
2022/09/08 00:18:12;;;;;;;4.35;1.92;;;;;;;19.79;100.00;99468.78;5049442;28;20033;-68
2022/09/08 00:20:38;;;;;;;6.00;2.67;;;;;;;19.76;100.00;99469.03;5049770;28;20067;-68
2022/09/08 00:23:03;;;;;;;5.22;2.50;;;;;;;19.85;100.00;99479.13;5043205;28;20025;-68
2022/09/08 00:25:29;;;;;;;4.75;2.50;;;;;;;19.83;100.00;99475.69;5034807;28;20071;-68
2022/09/08 00:27:54;;;;;;;5.07;2.35;;;;;;;19.77;100.00;99477.00;5052676;28;20021;-68
2022/09/08 00:30:20;;;;;;;4.45;2.25;;;;;;;19.83;100.00;99487.34;5052848;28;20458;-68
2022/09/08 00:32:45;;;;;;;3.85;2.20;;;;;;;19.77;100.00;99486.97;5052684;28;20395;-68
2022/09/08 00:35:14;;;;;;;10.48;2.78;;;;;;;19.84;100.00;99486.34;5052754;28;20116;-68
2022/09/08 00:37:41;;;;;;;6.38;2.30;;;;;;;19.81;100.00;99473.09;5035064;28;20027;-68
2022/09/08 00:40:07;;;;;;;6.63;2.78;;;;;;;19.91;100.00;99490.28;5053418;28;20576;-68
2022/09/08 00:42:32;;;;;;;7.30;2.72;;;;;;;19.92;100.00;99491.16;5035294;28;20386;-68
2022/09/08 00:44:58;;;;;;;5.95;2.45;;;;;;;19.93;100.00;99493.72;5053046;28;20021;-68
2022/09/08 00:47:43;;;;;;;6.53;3.10;;;;;;;19.93;100.00;99493.72;5053158;28;20025;-67
2022/09/08 00:50:22;;;;;;;5.63;3.05;;;;;;;19.98;100.00;99496.94;5053074;28;20031;-68
2022/09/08 00:53:00;;;;;;;5.40;2.58;;;;;;;19.98;100.00;99485.25;5052575;28;20127;-68
2022/09/08 00:55:36;;;;;;;5.40;3.08;;;;;;;19.92;100.00;99483.91;5052780;28;20033;-67
2022/09/08 00:58:01;;;;;;;5.07;2.17;;;;;;;19.99;100.00;99476.16;5052999;28;20152;-67
2022/09/08 01:00:40;;;;;;;5.78;3.03;;;;;;;20.02;100.00;99466.00;5034745;28;20498;-68
2022/09/08 01:03:08;;;;;;;6.00;3.05;;;;;;;19.99;100.00;99466.25;5045090;28;20461;-67
2022/09/08 01:05:45;;;;;;;4.72;2.90;;;;;;;19.97;100.00;99467.31;5042173;28;20044;-67
2022/09/08 01:14:14;;;;;;;6.63;3.67;;;;;;;19.96;100.00;99461.09;5052578;28;20056;-67
2022/09/08 01:16:42;;;;;;;7.13;3.55;;;;;;;19.97;100.00;99462.78;5052417;28;20025;-66
2022/09/08 01:19:31;;;;;;;6.65;3.83;;;;;;;19.97;100.00;99456.53;5052210;28;20029;-66
2022/09/08 01:22:19;;;;;;;8.13;3.80;;;;;;;19.91;100.00;99435.44;5032104;28;20521;-66
2022/09/08 01:25:06;;;;;;;7.18;3.75;;;;;;;19.90;100.00;99431.88;5049973;28;20366;-66
2022/09/08 01:27:33;;;;;;;7.63;3.72;;;;;;;19.92;100.00;99440.69;5052086;28;20512;-66
2022/09/08 01:30:06;;;;;;;5.95;3.42;;;;;;;19.91;100.00;99441.69;5034309;28;20032;-66
2022/09/08 01:32:35;;;;;;;7.20;3.83;;;;;;;19.94;100.00;99441.44;5031888;28;20570;-66
2022/09/08 01:35:01;;;;;;;7.53;3.60;;;;;;;19.96;100.00;99434.09;5032329;28;20033;-66
2022/09/08 01:37:26;;;;;;;9.18;3.75;;;;;;;19.92;100.00;99435.31;5032307;28;20028;-66
2022/09/08 01:39:52;;;;;;;7.28;3.55;;;;;;;19.95;100.00;99426.13;5032261;28;20029;-66
2022/09/08 01:42:18;;;;;;;6.97;3.58;;;;;;;19.91;100.00;99420.09;5030410;28;20025;-66
2022/09/08 01:44:43;;;;;;;6.57;3.70;;;;;;;19.93;100.00;99426.25;5032305;28;20543;-66
2022/09/08 01:47:10;;;;;;;6.32;3.10;;;;;;;19.89;100.00;99422.06;5032084;28;20469;-66
2022/09/08 01:49:36;;;;;;;5.70;2.80;;;;;;;19.94;100.00;99429.78;5032150;28;20404;-66
2022/09/08 01:52:02;;;;;;;6.32;3.22;;;;;;;19.90;100.00;99439.97;5031843;28;20025;-66
2022/09/08 01:54:27;;;;;;;6.25;3.03;;;;;;;19.91;100.00;99438.13;5031680;28;20495;-66
2022/09/08 01:56:54;;;;;;;8.40;3.58;;;;;;;19.88;100.00;99435.69;5019340;28;20025;-66
2022/09/08 01:59:20;;;;;;;6.57;3.67;;;;;;;19.98;100.00;99453.75;5012211;28;20119;-66
2022/09/08 02:01:45;;;;;;;7.80;3.97;;;;;;;20.03;100.00;99442.56;5011873;28;20110;-66
2022/09/08 02:04:10;;;;;;;6.55;4.25;;;;;;;20.02;100.00;99441.69;5011947;28;20034;-66
2022/09/08 02:06:36;;;;;;;9.18;4.68;;;;;;;20.08;100.00;99433.09;5012073;28;20025;-67
2022/09/08 02:09:01;;;;;;;8.80;4.13;;;;;;;20.09;100.00;99431.25;5011806;28;20109;-67
2022/09/08 02:11:27;;;;;;;8.00;3.65;;;;;;;20.08;100.00;99433.09;5011689;28;20033;-66
2022/09/08 02:13:52;;;;;;;8.43;3.45;;;;;;;20.06;100.00;99434.22;5011809;28;20109;-66
2022/09/08 02:16:18;;;;;;;7.00;3.20;;;;;;;20.06;100.00;99439.59;5014533;28;20072;-66
2022/09/08 02:18:43;;;;;;;7.10;3.25;;;;;;;20.03;100.00;99435.28;5031255;28;20029;-66
2022/09/08 02:21:11;;;;;;;10.50;4.53;;;;;;;20.04;100.00;99442.44;5031041;28;20040;-67
2022/09/08 02:23:39;;;;;;;9.30;3.55;;;;;;;20.06;100.00;99451.28;5029706;28;20116;-67
2022/09/08 02:26:06;;;;;;;8.38;4.03;;;;;;;20.06;100.00;99448.56;5031489;28;20021;-67
2022/09/08 02:28:32;;;;;;;9.35;4.05;;;;;;;20.06;100.00;99456.69;5031235;28;20064;-67
2022/09/08 02:31:02;;;;;;;8.65;4.10;;;;;;;20.10;100.00;99457.28;5039104;28;20087;-67
2022/09/08 02:33:29;;;;;;;6.78;3.95;;;;;;;20.11;100.00;99454.47;5049886;28;20529;-68
2022/09/08 02:35:55;;;;;;;6.75;3.70;;;;;;;20.11;100.00;99454.47;5049689;28;20032;-68
2022/09/08 02:38:25;;;;;;;10.73;4.35;;;;;;;20.13;100.00;99451.66;5049308;28;20029;-69
2022/09/08 02:40:51;;;;;;;6.78;3.80;;;;;;;20.12;100.00;99431.00;5049478;28;20033;-68
2022/09/08 02:43:17;;;;;;;6.45;3.75;;;;;;;20.11;100.00;99438.28;5049477;28;20032;-68
2022/09/08 02:45:43;;;;;;;6.80;3.58;;;;;;;20.11;100.00;99448.19;5048831;28;20483;-68
2022/09/08 02:48:09;;;;;;;7.53;3.08;;;;;;;20.08;100.00;99438.50;5050519;28;20035;-68
2022/09/08 02:50:34;;;;;;;5.55;3.35;;;;;;;20.10;100.00;99435.69;5032929;28;20033;-68
2022/09/08 02:53:00;;;;;;;5.22;3.03;;;;;;;20.11;100.00;99445.50;5050449;28;20400;-69
2022/09/08 02:55:25;;;;;;;7.57;3.30;;;;;;;19.98;100.00;99437.53;5050919;28;20021;-70
2022/09/08 02:57:51;;;;;;;4.45;2.72;;;;;;;20.06;100.00;99447.72;5050300;28;20087;-68
2022/09/08 03:00:18;;;;;;;5.43;2.30;;;;;;;20.04;100.00;99453.22;5050865;28;20536;-69
2022/09/08 03:02:44;;;;;;;6.28;2.97;;;;;;;19.96;100.00;99455.69;5050474;28;20116;-70
2022/09/08 03:05:10;;;;;;;5.82;3.00;;;;;;;19.85;100.00;99428.66;5050858;28;20136;-70
2022/09/08 03:07:37;;;;;;;5.88;2.38;;;;;;;19.96;100.00;99466.50;5050347;28;20475;-69
2022/09/08 03:10:04;;;;;;;5.63;2.30;;;;;;;19.90;100.00;99456.16;5032574;28;20028;-70
2022/09/08 03:12:30;;;;;;;6.20;1.90;;;;;;;19.85;100.00;99469.16;5032969;28;20037;-70
2022/09/08 03:14:55;;;;;;;5.90;1.92;;;;;;;19.74;100.00;99482.66;5050689;28;20029;-70
2022/09/08 03:17:22;;;;;;;3.20;1.83;;;;;;;19.70;100.00;99475.78;5050573;28;20055;-71
2022/09/08 03:19:48;;;;;;;6.10;2.05;;;;;;;19.47;100.00;99474.84;5050394;28;20108;-70
2022/09/08 03:22:14;;;;;;;2.58;1.40;;;;;;;19.39;100.00;99482.69;5047805;28;20017;-71
2022/09/08 03:24:39;;;;;;;2.75;1.52;;;;;;;19.38;100.00;99491.78;5050538;28;20024;-70
2022/09/08 03:27:05;;;;;;;4.90;1.10;;;;;;;19.33;100.00;99485.88;5050779;28;20140;-72
2022/09/08 03:29:31;;;;;;;2.25;1.00;;;;;;;19.19;100.00;99477.91;5050210;28;20029;-71
2022/09/08 03:31:57;;;;;;;2.45;1.25;;;;;;;19.17;100.00;99489.81;5057139;28;20056;-71
2022/09/08 03:34:23;;;;;;;3.13;0.95;;;;;;;19.08;100.00;99487.78;5059289;28;20546;-70
2022/09/08 03:36:48;;;;;;;3.20;1.00;;;;;;;18.95;100.00;99481.63;5048528;28;20116;-70
2022/09/08 03:39:14;;;;;;;4.68;1.13;;;;;;;18.94;100.00;99482.59;5050126;28;20025;-71
2022/09/08 03:41:39;;;;;;;1.30;0.70;;;;;;;18.89;100.00;99484.78;5032279;28;20503;-71
2022/09/08 03:44:05;;;;;;;2.80;0.50;;;;;;;18.83;100.00;99496.88;5032145;28;20503;-71
2022/09/08 03:46:30;;;;;;;1.65;0.50;;;;;;;18.72;100.00;99504.03;5050482;28;20021;-71
2022/09/08 03:48:55;;;;;;;6.13;0.80;;;;;;;18.58;100.00;99501.50;5050528;28;20025;-72
2022/09/08 03:51:25;;;;;;;1.35;0.43;;;;;;;18.53;100.00;99504.53;5050539;28;20035;-74
2022/09/08 03:53:53;;;;;;;2.47;0.60;;;;;;;18.51;100.00;99511.00;5039144;28;20017;-74
2022/09/08 03:56:18;;;;;;;6.22;1.00;;;;;;;18.51;100.00;99519.06;5031257;28;20365;-75
2022/09/08 03:58:44;;;;;;;1.50;0.50;;;;;;;18.51;100.00;99513.69;5033521;28;20042;-73
2022/09/08 04:01:12;;;;;;;7.70;0.80;;;;;;;18.56;100.00;99516.91;5033577;28;20040;-73
2022/09/08 04:03:38;;;;;;;3.83;0.88;;;;;;;18.50;100.00;99503.91;5051143;28;20158;-74
2022/09/08 04:06:04;;;;;;;3.88;0.95;;;;;;;18.35;100.00;99493.22;5052746;28;20049;-74
2022/09/08 04:08:30;;;;;;;1.33;0.50;;;;;;;18.35;100.00;99498.59;5053694;28;20082;-73
2022/09/08 04:10:56;;;;;;;0.93;0.40;;;;;;;18.36;100.00;99513.81;5054332;28;20043;-72
2022/09/08 04:13:22;;;;;;;1.90;0.50;;;;;;;18.36;100.00;99515.63;5053851;28;20029;-71
2022/09/08 04:15:48;;;;;;;5.22;0.80;;;;;;;18.36;100.00;99513.81;5053192;28;20021;-70
2022/09/08 04:18:13;;;;;;;2.88;0.57;;;;;;;18.34;100.00;99507.66;5053475;28;20108;-69
2022/09/08 04:20:39;;;;;;;1.75;0.73;;;;;;;18.36;100.00;99521.00;5035782;28;20028;-69
2022/09/08 04:23:05;;;;;;;3.58;0.60;;;;;;;18.34;100.00;99528.34;5053696;28;20025;-70
2022/09/08 04:25:31;;;;;;;1.50;0.65;;;;;;;18.29;100.00;99536.75;5053638;28;20100;-69
2022/09/08 04:27:56;;;;;;;2.80;1.05;;;;;;;18.28;100.00;99523.41;5053909;28;20027;-69
2022/09/08 04:30:22;;;;;;;2.45;0.90;;;;;;;18.27;100.00;99517.16;5053524;28;20056;-68
2022/09/08 04:32:48;;;;;;;1.85;0.88;;;;;;;18.18;100.00;99498.97;5051778;28;20391;-70
2022/09/08 04:35:13;;;;;;;4.10;1.15;;;;;;;18.27;100.00;99517.16;5051843;28;20537;-70
2022/09/08 04:37:39;;;;;;;2.28;0.88;;;;;;;18.21;100.00;99525.66;5034270;28;20023;-68
2022/09/08 04:40:07;;;;;;;3.05;1.00;;;;;;;18.18;100.00;99515.13;5051990;28;20130;-68
2022/09/08 04:42:33;;;;;;;1.65;0.70;;;;;;;18.13;100.00;99509.22;5051784;28;20061;-68
2022/09/08 04:44:59;;;;;;;3.28;0.88;;;;;;;18.07;100.00;99515.00;5051835;28;20606;-68
2022/09/08 04:47:24;;;;;;;2.22;1.20;;;;;;;18.01;100.00;99528.91;5053020;28;20109;-69
2022/09/08 04:49:50;;;;;;;1.17;0.73;;;;;;;18.04;100.00;99536.75;5053260;28;20167;-69
2022/09/08 04:52:16;;;;;;;2.10;0.80;;;;;;;18.09;100.00;99540.00;5053041;28;20060;-68
2022/09/08 04:54:42;;;;;;;2.78;0.70;;;;;;;18.09;100.00;99534.59;5052845;28;20033;-68
2022/09/08 04:57:08;;;;;;;1.83;0.70;;;;;;;18.10;100.00;99535.47;5053340;28;20417;-68
2022/09/08 04:59:34;;;;;;;2.47;0.70;;;;;;;18.10;100.00;99541.69;5052587;28;20017;-69
2022/09/08 05:01:59;;;;;;;2.05;0.98;;;;;;;18.13;100.00;99536.13;5052527;28;20107;-69
2022/09/08 05:04:25;;;;;;;1.17;0.70;;;;;;;18.19;100.00;99524.91;5034625;28;20025;-68
2022/09/08 05:06:50;;;;;;;2.13;0.77;;;;;;;18.12;100.00;99525.47;5053035;28;20021;-68
2022/09/08 05:09:16;;;;;;;1.77;0.77;;;;;;;18.12;100.00;99531.69;5051904;28;20032;-69
2022/09/08 05:11:41;;;;;;;2.28;0.82;;;;;;;18.13;100.00;99544.19;5052865;28;20036;-69
2022/09/08 05:14:07;;;;;;;7.35;1.00;;;;;;;18.17;100.00;99548.38;5052688;28;20365;-69
2022/09/08 05:16:33;;;;;;;2.17;1.15;;;;;;;18.19;100.00;99565.28;5052578;28;20021;-68
2022/09/08 05:19:02;;;;;;;1.75;0.82;;;;;;;18.12;100.00;99561.31;5052475;28;20021;-69
2022/09/08 05:21:29;;;;;;;2.05;0.68;;;;;;;18.14;100.00;99562.06;5052564;28;20075;-68
2022/09/08 05:23:56;;;;;;;1.48;0.88;;;;;;;18.17;100.00;99563.69;5052343;28;20468;-69
2022/09/08 05:26:23;;;;;;;3.10;1.23;;;;;;;18.07;100.00;99563.47;5052560;28;20503;-68
2022/09/08 05:28:48;;;;;;;4.25;1.20;;;;;;;18.04;100.00;99568.19;5052341;28;20032;-69
2022/09/08 05:31:17;;;;;;;2.50;1.00;;;;;;;18.05;100.00;99565.41;5051817;28;20524;-69
2022/09/08 05:33:42;;;;;;;1.42;0.98;;;;;;;18.08;100.00;99575.09;5052309;28;20479;-68
2022/09/08 05:36:16;;;;;;;3.17;1.05;;;;;;;18.06;100.00;99571.63;5051566;28;20029;-68
2022/09/08 05:38:42;;;;;;;6.88;1.00;;;;;;;18.06;100.00;99580.59;5051691;28;20047;-69
2022/09/08 05:41:09;;;;;;;1.33;0.70;;;;;;;18.02;100.00;99581.75;5052325;28;20029;-68
2022/09/08 05:43:35;;;;;;;2.85;0.80;;;;;;;18.01;100.00;99580.03;5052369;28;20025;-68
2022/09/08 05:46:00;;;;;;;1.23;0.70;;;;;;;17.94;100.00;99580.59;5051729;28;20067;-69
2022/09/08 05:48:26;;;;;;;1.85;1.00;;;;;;;17.88;100.00;99579.19;5051951;28;20074;-69
2022/09/08 05:50:51;;;;;;;3.10;1.00;;;;;;;17.94;100.00;99581.44;5052162;28;20029;-68
2022/09/08 05:53:17;;;;;;;1.40;0.70;;;;;;;17.96;100.00;99576.81;5052253;28;20021;-68
2022/09/08 05:55:42;;;;;;;1.48;1.15;;;;;;;17.98;100.00;99585.66;5051873;28;20380;-68
2022/09/08 05:58:10;;;;;;;3.80;1.20;;;;;;;18.03;100.00;99586.19;5052447;28;20218;-69
2022/09/08 06:00:37;;;;;;;3.80;1.35;;;;;;;17.99;100.00;99576.59;5052090;28;20357;-68
2022/09/08 06:03:03;;;;;;;2.15;1.00;;;;;;;18.06;100.00;99585.09;5051918;28;20036;-68
2022/09/08 06:05:34;;;;;;;3.33;1.00;;;;;;;18.00;100.00;99583.72;5050140;28;20037;-69
2022/09/08 06:08:00;;;;;;;1.55;0.80;;;;;;;17.99;100.00;99583.81;5048139;28;20047;-68
2022/09/08 06:10:26;;;;;;;3.33;1.05;;;;;;;18.10;100.00;99600.91;5048412;28;20024;-68
2022/09/08 06:12:54;;;;;;;2.85;0.80;;;;;;;18.15;100.00;99596.06;5048228;28;20020;-68
2022/09/08 06:15:19;;;;;;;2.90;0.93;;;;;;;18.16;100.00;99595.13;5048874;28;20407;-69
2022/09/08 06:17:44;;;;;;;2.13;0.98;;;;;;;18.24;100.00;99598.13;5031325;28;20268;-68
2022/09/08 06:20:11;;;;;;;3.83;0.90;;;;;;;18.26;100.00;99606.97;5049756;28;20052;-68
2022/09/08 06:22:36;;;;;;;7.50;2.17;;;;;;;18.30;100.00;99603.09;5050785;28;20079;-68
2022/09/08 06:25:03;;;;;;;3.85;1.42;;;;;;;18.38;100.00;99610.63;5047510;28;20142;-68
2022/09/08 06:27:34;;;;;;;3.47;0.93;;;;;;;18.43;100.00;99621.09;5044434;28;20033;-68
2022/09/08 06:30:05;;;;;;;3.70;1.10;;;;;;;18.43;100.00;99623.81;5033044;28;20083;-68
2022/09/08 06:32:36;;;;;;;2.05;1.15;;;;;;;18.51;100.00;99621.44;5050036;28;20106;-68
2022/09/08 06:35:05;;;;;;;1.73;0.90;;;;;;;18.61;100.00;99614.41;5049993;28;20021;-68
2022/09/08 06:37:41;;;;;;;2.35;0.90;;;;;;;18.79;100.00;99627.44;5049472;28;20025;-68
2022/09/08 06:40:15;;;;;;;1.67;0.73;;;;;;;18.81;100.00;99627.31;5048425;28;20472;-68
2022/09/08 06:42:53;;;;;;;3.45;0.98;;;;;;;18.82;100.00;99624.50;5050165;28;20440;-68
2022/09/08 06:45:28;;;;;;;1.55;0.70;;;;;;;18.77;100.00;99620.41;5038936;28;20021;-67
2022/09/08 06:48:15;;;;;;;2.20;0.73;;;;;;;18.79;100.00;99624.75;5048576;28;20025;-68
2022/09/08 06:50:56;;;;;;;0.57;0.50;;;;;;;18.73;100.00;99618.94;5047923;28;20033;-68
2022/09/08 06:53:25;;;;;;;1.75;0.55;;;;;;;18.73;100.00;99632.41;5049151;28;20021;-68
2022/09/08 06:56:02;;;;;;;3.22;0.68;;;;;;;18.74;100.00;99637.69;5048814;28;20032;-68
2022/09/08 06:58:32;;;;;;;3.50;0.88;;;;;;;18.65;100.00;99624.00;5049345;28;20021;-68
2022/09/08 07:01:03;;;;;;;2.55;0.70;;;;;;;18.77;100.00;99642.84;5034278;28;20140;-67
2022/09/08 07:03:46;;;;;;;1.40;0.70;;;;;;;18.77;100.00;99644.66;5049363;28;20082;-67
2022/09/08 07:06:16;;;;;;;0.65;0.50;;;;;;;18.77;100.00;99633.88;5048952;28;20078;-68
2022/09/08 07:09:26;;;;;;;1.63;0.63;;;;;;;19.01;100.00;99643.75;5034127;28;20116;-68
2022/09/08 07:12:02;;;;;;;2.83;0.70;;;;;;;19.11;100.00;99638.56;5011735;28;20037;-67
2022/09/08 07:14:54;;;;;;;3.42;0.63;;;;;;;19.29;100.00;99648.03;5023758;28;20073;-67
2022/09/08 07:17:29;;;;;;;2.75;0.70;;;;;;;19.40;100.00;99646.28;5027615;28;20033;-67
2022/09/08 07:19:56;;;;;;;1.42;0.70;;;;;;;19.45;100.00;99643.22;5037254;28;20598;-68
2022/09/08 07:22:51;;;;;;;0.88;0.52;;;;;;;19.51;100.00;99661.63;5047700;28;20384;-67
2022/09/08 07:25:27;;;;;;;1.70;0.47;;;;;;;19.56;100.00;99657.63;5047642;28;20025;-68
2022/09/08 07:28:19;;;;;;;0.95;0.70;;;;;;;19.68;99.13;99661.25;5049193;28;20072;-66
2022/09/08 07:30:57;;;;;;;2.70;0.75;;;;;;;19.71;98.40;99644.81;5045872;28;20046;-67
2022/09/08 07:33:23;;;;;;;1.48;0.75;;;;;;;19.80;97.54;99652.22;5052541;28;20098;-67
2022/09/08 07:35:54;;;;;;;1.15;0.55;;;;;;;19.88;97.93;99652.50;5036354;28;20480;-67
2022/09/08 07:38:42;;;;;;;1.55;0.60;;;;;;;19.87;97.11;99642.66;5054510;28;20032;-67
2022/09/08 07:41:10;;;;;;;0.98;0.60;;;;;;;20.02;96.42;99655.00;5053444;28;20071;-67
2022/09/08 07:43:35;;;;;;;1.65;0.60;;;;;;;20.12;96.47;99661.41;5054186;28;20044;-68
2022/09/08 07:46:19;;;;;;;0.65;0.50;;;;;;;20.53;96.15;99661.78;5053472;28;20094;-67
2022/09/08 07:49:15;;;;;;;1.13;0.70;;;;;;;21.64;89.18;99662.59;5055367;28;20045;-67
2022/09/08 07:52:07;;;;;;;0.68;0.35;;;;;;;22.56;84.23;99651.94;5054762;28;20041;-68
2022/09/08 07:55:22;;;;;;;1.10;0.52;;;;;;;22.68;78.46;99652.72;5028826;28;20110;-66
2022/09/08 07:58:11;;;;;;;0.60;0.35;;;;;;;22.59;78.04;99657.09;4955008;29;20035;-66
2022/09/08 08:00:50;;;;;;;0.57;0.35;;;;;;;22.40;78.60;99667.81;4949733;29;20050;-64
2022/09/08 08:03:38;;;;;;;1.02;0.20;;;;;;;22.10;78.12;99659.59;4971523;28;20521;-61
2022/09/08 08:06:28;;;;;;;2.75;1.33;;;;;;;21.83;80.37;99657.38;4963970;28;20142;-60
2022/09/08 08:09:09;;;;;;;0.85;0.30;;;;;;;21.89;78.80;99653.28;4989912;28;20084;-61
2022/09/08 08:11:53;;;;;;;1.02;0.40;;;;;;;22.48;78.87;99665.28;5035190;28;20033;-61
2022/09/08 08:14:21;;;;;;;0.90;0.50;;;;;;;23.33;75.95;99674.88;5049787;28;20048;-61
2022/09/08 08:17:27;;;;;;;4.43;1.48;;;;;;;24.27;71.93;99661.53;5054779;28;20083;-61
2022/09/08 08:20:19;;;;;;;0.40;0.40;;;;;;;24.98;67.52;99673.72;5040955;28;20110;-63
2022/09/08 08:22:59;;;;;;;0.77;0.25;;;;;;;25.24;64.72;99674.78;5054388;28;20476;-64
2022/09/08 08:25:38;;;;;;;0.35;0.20;;;;;;;25.13;64.79;99667.66;5054524;28;20017;-66
2022/09/08 08:28:17;;;;;;;1.02;0.25;;;;;;;25.06;62.12;99679.31;5053392;28;20488;-66
2022/09/08 08:30:54;;;;;;;0.20;0.20;;;;;;;24.93;63.72;99682.34;5048642;28;20100;-66
2022/09/08 08:33:25;;;;;;;6.95;0.40;;;;;;;24.32;64.70;99676.44;5048874;28;20112;-66
2022/09/08 08:35:55;;;;;;;1.65;0.22;;;;;;;23.25;66.94;99678.25;5053500;28;20040;-67
2022/09/08 08:38:28;;;;;;;2.65;0.30;;;;;;;22.81;68.25;99683.19;5053858;28;20103;-67
2022/09/08 08:40:57;;;;;;;2.67;0.40;;;;;;;23.57;68.84;99678.09;5035912;28;20037;-67
2022/09/08 08:43:57;;;;;;;0.73;0.30;;;;;;;24.58;65.73;99682.09;5050026;28;20107;-67
2022/09/08 08:46:48;;;;;;;0.82;0.30;;;;;;;24.25;61.35;99688.03;5050287;28;20116;-67
2022/09/08 08:49:35;;;;;;;1.55;0.40;;;;;;;23.50;64.25;99689.63;5049003;28;20032;-66
2022/09/08 08:52:19;;;;;;;0.45;0.40;;;;;;;22.99;68.10;99703.28;5031224;28;20035;-66
2022/09/08 08:55:13;;;;;;;0.90;0.30;;;;;;;22.93;70.52;99693.81;5049932;28;20035;-67
2022/09/08 08:58:11;;;;;;;0.60;0.30;;;;;;;22.89;68.92;99684.25;5007711;28;20211;-67
2022/09/08 09:00:51;;;;;;;1.48;0.40;;;;;;;23.24;68.15;99679.22;5050910;28;20033;-68
2022/09/08 09:03:49;;;;;;;8.05;0.65;;;;;;;24.32;64.64;99681.00;5048860;28;20025;-66
2022/09/08 09:06:30;;;;;;;1.38;0.40;;;;;;;25.32;60.15;99689.31;5051586;28;20036;-67
2022/09/08 09:09:20;;;;;;;0.77;0.30;;;;;;;26.62;56.70;99686.97;5053274;28;20116;-68
2022/09/08 09:12:18;;;;;;;3.33;0.40;;;;;;;27.56;50.99;99684.13;5053114;28;20044;-67
2022/09/08 09:15:16;;;;;;;2.20;0.38;;;;;;;28.17;50.76;99684.66;5043382;28;20047;-67
2022/09/08 09:18:03;;;;;;;1.27;0.30;;;;;;;28.68;48.85;99682.66;5050630;28;20485;-67
2022/09/08 09:20:47;;;;;;;0.65;0.10;;;;;;;28.25;48.77;99681.91;5050708;28;20017;-67
2022/09/08 09:23:24;;;;;;;1.85;0.25;;;;;;;28.42;49.18;99680.91;5050715;28;20091;-66
2022/09/08 09:26:09;;;;;;;1.10;0.20;;;;;;;28.62;48.35;99686.91;5050683;28;20031;-66
2022/09/08 09:28:57;;;;;;;0.55;0.20;;;;;;;28.61;47.47;99676.16;5050524;28;20053;-66
2022/09/08 09:31:37;;;;;;;0.98;0.40;;;;;;;27.69;48.67;99683.69;5048853;28;20185;-67
2022/09/08 09:34:45;;;;;;;1.10;0.40;;;;;;;27.90;48.61;99687.69;5049475;28;20480;-66
2022/09/08 09:37:35;;;;;;;1.55;0.28;;;;;;;28.23;46.96;99686.72;5051148;28;20094;-66
2022/09/08 09:40:13;;;;;;;0.77;0.28;;;;;;;28.58;47.45;99671.03;5050624;28;20044;-66
2022/09/08 09:42:56;;;;;;;1.42;0.30;;;;;;;29.40;47.70;99675.13;5051389;28;20033;-67
2022/09/08 09:45:36;;;;;;;1.75;0.40;;;;;;;29.46;44.53;99679.88;5051813;28;20100;-66
2022/09/08 09:48:31;;;;;;;2.15;0.40;;;;;;;29.00;42.94;99675.22;5052119;28;20111;-66
2022/09/08 09:50:56;;;;;;;2.17;0.30;;;;;;;29.11;43.94;99674.03;5052007;28;20036;-66
2022/09/08 09:54:17;;;;;;;2.58;0.60;;;;;;;29.28;43.40;99686.63;5050711;28;20017;-66
2022/09/08 09:57:13;;;;;;;1.98;0.40;;;;;;;29.94;42.56;99678.81;4968167;28;20049;-67
2022/09/08 09:59:38;;;;;;;3.40;0.30;;;;;;;30.12;41.70;99682.13;5030419;28;20056;-67
2022/09/08 10:02:34;;;;;;;2.75;0.40;;;;;;;29.43;42.20;99679.38;5036049;28;20025;-67
2022/09/08 10:05:08;;;;;;;3.28;0.52;;;;;;;28.21;44.48;99674.22;5050581;28;20051;-67
2022/09/08 10:08:13;;;;;;;1.33;0.40;;;;;;;27.56;48.44;99678.66;5050225;28;20033;-67
2022/09/08 10:11:06;;;;;;;1.50;0.40;;;;;;;27.73;46.90;99674.97;5031968;28;20031;-67
2022/09/08 10:13:50;;;;;;;0.63;0.35;;;;;;;27.56;46.82;99678.66;5050255;28;20032;-67
2022/09/08 10:16:43;;;;;;;3.45;0.70;;;;;;;27.55;47.16;99674.22;5051543;28;20353;-67
2022/09/08 10:19:19;;;;;;;4.72;0.77;;;;;;;27.19;46.29;99672.69;5051542;28;20028;-67
2022/09/08 10:22:04;;;;;;;1.77;0.40;;;;;;;26.77;48.01;99663.59;5051724;28;20363;-67
2022/09/08 10:24:48;;;;;;;2.35;0.30;;;;;;;26.57;47.82;99673.78;5051457;28;20403;-67
2022/09/08 10:27:33;;;;;;;1.55;0.40;;;;;;;26.63;48.07;99673.19;5051481;28;20033;-67
2022/09/08 10:30:14;;;;;;;1.85;0.50;;;;;;;26.79;47.34;99675.16;5051442;28;20031;-66
2022/09/08 10:33:07;;;;;;;4.65;0.80;;;;;;;27.48;46.75;99670.44;5051197;28;20047;-67
2022/09/08 10:35:42;;;;;;;1.38;0.50;;;;;;;27.67;47.90;99672.91;5051065;28;20404;-67
2022/09/08 10:38:48;;;;;;;5.78;0.63;;;;;;;28.15;45.46;99669.44;5051378;28;20037;-67
2022/09/08 10:41:14;;;;;;;4.32;0.52;;;;;;;28.83;44.93;99673.53;5051465;28;20031;-67
2022/09/08 10:43:54;;;;;;;1.67;0.52;;;;;;;29.25;43.80;99670.56;5049947;28;20029;-67
2022/09/08 10:46:31;;;;;;;3.22;0.40;;;;;;;29.41;41.17;99675.97;5049594;28;20067;-68
2022/09/08 10:49:25;;;;;;;3.45;0.45;;;;;;;29.34;42.83;99675.81;5049702;28;20473;-67
2022/09/08 10:52:10;;;;;;;2.80;0.47;;;;;;;29.50;42.43;99674.91;5049510;28;20245;-67
2022/09/08 10:55:01;;;;;;;7.28;0.63;;;;;;;28.80;41.90;99678.53;5049478;28;20024;-68
2022/09/08 10:57:51;;;;;;;2.55;0.60;;;;;;;27.89;45.48;99669.56;5048897;28;20040;-67
2022/09/08 11:00:21;;;;;;;2.72;0.55;;;;;;;27.56;45.50;99664.16;5049811;28;20090;-68
2022/09/08 11:02:46;;;;;;;3.80;0.30;;;;;;;28.30;45.86;99667.75;5049863;28;20043;-67
2022/09/08 11:05:23;;;;;;;1.45;0.40;;;;;;;29.15;43.24;99675.38;5048856;28;20029;-67
2022/09/08 11:08:16;;;;;;;4.80;0.45;;;;;;;28.72;43.92;99662.09;5049525;28;20104;-68
2022/09/08 11:11:18;;;;;;;2.70;0.30;;;;;;;28.04;45.83;99669.78;5049606;28;20029;-68
2022/09/08 11:13:46;;;;;;;2.25;0.40;;;;;;;27.55;45.90;99668.78;5050330;28;20504;-68
2022/09/08 11:16:53;;;;;;;3.38;0.47;;;;;;;27.14;46.40;99666.84;5050492;28;20032;-68
2022/09/08 11:19:40;;;;;;;2.00;0.32;;;;;;;28.08;47.21;99652.88;5021912;28;20041;-68
2022/09/08 11:23:01;;;;;;;3.40;0.75;;;;;;;29.12;44.75;99648.34;5050922;28;20100;-68
2022/09/08 11:25:43;;;;;;;2.95;0.50;;;;;;;29.93;41.41;99652.44;4969415;28;20038;-67
2022/09/08 11:28:33;;;;;;;3.15;0.68;;;;;;;30.60;39.56;99643.31;5042691;28;20036;-68
2022/09/08 11:31:22;;;;;;;4.10;0.68;;;;;;;31.14;39.07;99656.88;5050749;28;20056;-68
2022/09/08 11:34:09;;;;;;;2.80;0.50;;;;;;;30.96;39.62;99643.47;5050338;28;20021;-69
2022/09/08 11:36:37;;;;;;;1.75;0.50;;;;;;;31.13;39.60;99647.75;5050381;28;20519;-68
2022/09/08 11:39:14;;;;;;;2.38;0.50;;;;;;;31.33;39.78;99645.31;5050501;28;20051;-69
2022/09/08 11:42:07;;;;;;;4.28;0.60;;;;;;;31.64;38.84;99643.19;5050523;28;20056;-69
2022/09/08 11:45:13;;;;;;;2.83;0.38;;;;;;;31.80;39.30;99648.44;5050234;28;20050;-69
2022/09/08 11:48:12;;;;;;;2.50;0.30;;;;;;;32.05;36.88;99647.06;4988373;28;20027;-68
2022/09/08 11:50:37;;;;;;;1.30;0.30;;;;;;;31.97;36.83;99638.94;5050419;28;20021;-68
2022/09/08 11:53:09;;;;;;;2.72;0.28;;;;;;;31.74;37.87;99640.97;5049807;28;20480;-67
2022/09/08 11:56:00;;;;;;;2.33;0.40;;;;;;;32.13;37.23;99636.78;5049259;28;20025;-66
2022/09/08 11:58:38;;;;;;;2.05;0.40;;;;;;;31.72;38.20;99640.31;5016800;28;20161;-66
2022/09/08 12:01:22;;;;;;;2.72;0.30;;;;;;;31.99;36.62;99642.34;5048402;28;20031;-66
2022/09/08 12:04:18;;;;;;;4.03;0.40;;;;;;;31.37;37.29;99638.41;5048939;28;20021;-66
2022/09/08 12:06:58;;;;;;;4.07;0.40;;;;;;;31.86;38.21;99637.53;5048815;28;20480;-66
2022/09/08 12:09:38;;;;;;;1.00;0.30;;;;;;;31.25;38.75;99638.00;5049309;28;20060;-66